sensor_id;sensor_type;location;lat;lon;timestamp;temperature;humidity
10883;DHT22;5494;51.796;10.952;2024-01-30T00:01:29;9.00;1.00
10883;DHT22;5494;51.796;10.952;2024-01-30T00:03:57;9.10;1.00
10883;DHT22;5494;51.796;10.952;2024-01-30T00:06:27;9.10;1.00
10883;DHT22;5494;51.796;10.952;2024-01-30T00:08:55;9.10;1.00
10883;DHT22;5494;51.796;10.952;2024-01-30T00:11:24;9.10;37.40
10883;DHT22;5494;51.796;10.952;2024-01-30T00:13:52;9.10;12.60
10883;DHT22;5494;51.796;10.952;2024-01-30T00:16:21;9.00;99.90
10883;DHT22;5494;51.796;10.952;2024-01-30T00:18:51;8.90;99.90
10883;DHT22;5494;51.796;10.952;2024-01-30T00:21:19;8.90;99.90
10883;DHT22;5494;51.796;10.952;2024-01-30T00:23:49;8.80;1.00
10883;DHT22;5494;51.796;10.952;2024-01-30T00:26:17;8.80;1.00
10883;DHT22;5494;51.796;10.952;2024-01-30T00:28:46;8.80;99.90
10883;DHT22;5494;51.796;10.952;2024-01-30T00:31:14;8.80;99.90
10883;DHT22;5494;51.796;10.952;2024-01-30T00:33:43;8.70;1.00
10883;DHT22;5494;51.796;10.952;2024-01-30T00:36:11;8.70;1.00
10883;DHT22;5494;51.796;10.952;2024-01-30T00:38:39;8.50;1.00
10883;DHT22;5494;51.796;10.952;2024-01-30T00:41:09;8.50;1.00
10883;DHT22;5494;51.796;10.952;2024-01-30T00:43:37;9.50;1.00
10883;DHT22;5494;51.796;10.952;2024-01-30T00:46:05;8.50;1.00
10883;DHT22;5494;51.796;10.952;2024-01-30T00:48:33;8.40;1.00
10883;DHT22;5494;51.796;10.952;2024-01-30T00:51:01;8.50;1.00
10883;DHT22;5494;51.796;10.952;2024-01-30T00:53:29;8.60;1.00
10883;DHT22;5494;51.796;10.952;2024-01-30T00:55:57;8.50;1.00
10883;DHT22;5494;51.796;10.952;2024-01-30T00:58:27;8.40;1.00
10883;DHT22;5494;51.796;10.952;2024-01-30T01:00:55;8.50;1.00
10883;DHT22;5494;51.796;10.952;2024-01-30T01:03:23;8.50;1.00
10883;DHT22;5494;51.796;10.952;2024-01-30T01:05:52;8.50;1.00
10883;DHT22;5494;51.796;10.952;2024-01-30T01:08:19;8.50;99.90
10883;DHT22;5494;51.796;10.952;2024-01-30T01:10:47;8.50;99.90
10883;DHT22;5494;51.796;10.952;2024-01-30T01:13:15;8.50;99.90
10883;DHT22;5494;51.796;10.952;2024-01-30T01:15:45;8.40;99.90
10883;DHT22;5494;51.796;10.952;2024-01-30T01:18:13;8.40;99.90
10883;DHT22;5494;51.796;10.952;2024-01-30T01:20:41;9.00;99.90
10883;DHT22;5494;51.796;10.952;2024-01-30T01:23:09;8.30;99.90
10883;DHT22;5494;51.796;10.952;2024-01-30T01:25:37;8.20;99.90
10883;DHT22;5494;51.796;10.952;2024-01-30T01:28:05;8.20;1.00
10883;DHT22;5494;51.796;10.952;2024-01-30T01:30:34;8.10;1.00
10883;DHT22;5494;51.796;10.952;2024-01-30T01:33:03;8.00;1.00
10883;DHT22;5494;51.796;10.952;2024-01-30T01:35:33;8.10;1.00
10883;DHT22;5494;51.796;10.952;2024-01-30T01:38:01;8.10;1.00
10883;DHT22;5494;51.796;10.952;2024-01-30T01:40:30;8.10;1.00
10883;DHT22;5494;51.796;10.952;2024-01-30T01:42:58;8.10;1.00
10883;DHT22;5494;51.796;10.952;2024-01-30T01:45:26;8.10;1.00
10883;DHT22;5494;51.796;10.952;2024-01-30T01:47:54;8.00;1.00
10883;DHT22;5494;51.796;10.952;2024-01-30T01:50:23;8.00;1.00
10883;DHT22;5494;51.796;10.952;2024-01-30T01:52:53;8.00;1.00
10883;DHT22;5494;51.796;10.952;2024-01-30T01:55:22;8.00;1.00
10883;DHT22;5494;51.796;10.952;2024-01-30T01:57:53;8.00;1.00
10883;DHT22;5494;51.796;10.952;2024-01-30T02:00:21;8.10;1.00
10883;DHT22;5494;51.796;10.952;2024-01-30T02:02:51;8.10;1.00
10883;DHT22;5494;51.796;10.952;2024-01-30T02:05:21;8.20;1.00
10883;DHT22;5494;51.796;10.952;2024-01-30T02:07:52;8.20;1.00
10883;DHT22;5494;51.796;10.952;2024-01-30T02:10:21;8.30;1.00
10883;DHT22;5494;51.796;10.952;2024-01-30T02:12:50;8.40;1.00
10883;DHT22;5494;51.796;10.952;2024-01-30T02:15:18;8.60;1.00
10883;DHT22;5494;51.796;10.952;2024-01-30T02:17:46;8.60;1.00
10883;DHT22;5494;51.796;10.952;2024-01-30T02:20:14;8.50;1.00
10883;DHT22;5494;51.796;10.952;2024-01-30T02:22:44;8.60;1.00
10883;DHT22;5494;51.796;10.952;2024-01-30T02:25:13;8.60;1.00
10883;DHT22;5494;51.796;10.952;2024-01-30T02:27:41;8.70;1.00
10883;DHT22;5494;51.796;10.952;2024-01-30T02:30:10;8.70;1.00
10883;DHT22;5494;51.796;10.952;2024-01-30T02:32:39;8.60;1.00
10883;DHT22;5494;51.796;10.952;2024-01-30T02:35:06;8.60;1.00
10883;DHT22;5494;51.796;10.952;2024-01-30T02:37:35;8.50;1.00
10883;DHT22;5494;51.796;10.952;2024-01-30T02:40:05;8.40;1.00
10883;DHT22;5494;51.796;10.952;2024-01-30T02:42:37;8.30;1.00
10883;DHT22;5494;51.796;10.952;2024-01-30T02:45:06;8.20;1.00
10883;DHT22;5494;51.796;10.952;2024-01-30T02:47:35;8.10;1.00
10883;DHT22;5494;51.796;10.952;2024-01-30T02:50:03;8.20;1.00
10883;DHT22;5494;51.796;10.952;2024-01-30T02:52:32;8.20;1.00
10883;DHT22;5494;51.796;10.952;2024-01-30T02:55:00;8.20;1.00
10883;DHT22;5494;51.796;10.952;2024-01-30T02:57:30;8.20;1.00
10883;DHT22;5494;51.796;10.952;2024-01-30T02:59:58;8.20;1.00
10883;DHT22;5494;51.796;10.952;2024-01-30T03:02:26;8.20;1.00
10883;DHT22;5494;51.796;10.952;2024-01-30T03:04:54;8.20;1.00
10883;DHT22;5494;51.796;10.952;2024-01-30T03:07:23;8.20;1.00
10883;DHT22;5494;51.796;10.952;2024-01-30T03:09:51;8.20;1.00
10883;DHT22;5494;51.796;10.952;2024-01-30T03:12:19;8.30;1.00
10883;DHT22;5494;51.796;10.952;2024-01-30T03:14:48;8.30;1.00
10883;DHT22;5494;51.796;10.952;2024-01-30T03:17:17;8.30;1.00
10883;DHT22;5494;51.796;10.952;2024-01-30T03:19:45;8.30;1.00
10883;DHT22;5494;51.796;10.952;2024-01-30T03:22:14;8.30;1.00
10883;DHT22;5494;51.796;10.952;2024-01-30T03:24:42;8.30;1.00
10883;DHT22;5494;51.796;10.952;2024-01-30T03:27:10;8.30;1.00
10883;DHT22;5494;51.796;10.952;2024-01-30T03:29:39;8.20;1.00
10883;DHT22;5494;51.796;10.952;2024-01-30T03:32:08;8.10;1.00
10883;DHT22;5494;51.796;10.952;2024-01-30T03:34:36;8.30;1.00
10883;DHT22;5494;51.796;10.952;2024-01-30T03:37:04;8.20;1.00
10883;DHT22;5494;51.796;10.952;2024-01-30T03:39:32;8.10;1.00
10883;DHT22;5494;51.796;10.952;2024-01-30T03:42:00;8.20;1.00
10883;DHT22;5494;51.796;10.952;2024-01-30T03:44:28;8.20;1.00
10883;DHT22;5494;51.796;10.952;2024-01-30T03:46:56;8.20;1.00
10883;DHT22;5494;51.796;10.952;2024-01-30T03:49:25;8.10;1.00
10883;DHT22;5494;51.796;10.952;2024-01-30T03:51:53;8.10;1.00
10883;DHT22;5494;51.796;10.952;2024-01-30T03:54:21;8.10;1.00
10883;DHT22;5494;51.796;10.952;2024-01-30T03:56:49;8.10;1.00
10883;DHT22;5494;51.796;10.952;2024-01-30T03:59:17;8.00;1.00
10883;DHT22;5494;51.796;10.952;2024-01-30T04:01:50;8.00;1.00
10883;DHT22;5494;51.796;10.952;2024-01-30T04:04:19;8.00;1.00
10883;DHT22;5494;51.796;10.952;2024-01-30T04:06:48;7.90;1.00
10883;DHT22;5494;51.796;10.952;2024-01-30T04:09:16;7.70;1.00
10883;DHT22;5494;51.796;10.952;2024-01-30T04:11:45;7.80;1.00
10883;DHT22;5494;51.796;10.952;2024-01-30T04:14:13;7.80;1.00
10883;DHT22;5494;51.796;10.952;2024-01-30T04:16:41;7.70;1.00
10883;DHT22;5494;51.796;10.952;2024-01-30T04:19:09;7.80;1.00
10883;DHT22;5494;51.796;10.952;2024-01-30T04:21:37;7.80;1.00
10883;DHT22;5494;51.796;10.952;2024-01-30T04:24:06;7.80;1.00
10883;DHT22;5494;51.796;10.952;2024-01-30T04:26:35;7.80;1.00
10883;DHT22;5494;51.796;10.952;2024-01-30T04:29:03;7.90;1.00
10883;DHT22;5494;51.796;10.952;2024-01-30T04:31:31;8.00;1.00
10883;DHT22;5494;51.796;10.952;2024-01-30T04:33:59;8.00;1.00
10883;DHT22;5494;51.796;10.952;2024-01-30T04:36:27;7.90;1.00
10883;DHT22;5494;51.796;10.952;2024-01-30T04:38:55;7.80;1.00
10883;DHT22;5494;51.796;10.952;2024-01-30T04:41:24;7.80;1.00
10883;DHT22;5494;51.796;10.952;2024-01-30T04:43:52;7.80;1.00
10883;DHT22;5494;51.796;10.952;2024-01-30T04:46:20;7.70;1.00
10883;DHT22;5494;51.796;10.952;2024-01-30T04:48:48;7.50;1.00
10883;DHT22;5494;51.796;10.952;2024-01-30T04:51:16;7.40;1.00
10883;DHT22;5494;51.796;10.952;2024-01-30T04:53:45;7.60;1.00
10883;DHT22;5494;51.796;10.952;2024-01-30T04:56:13;7.70;1.00
10883;DHT22;5494;51.796;10.952;2024-01-30T04:58:42;7.50;1.00
10883;DHT22;5494;51.796;10.952;2024-01-30T05:01:14;7.60;1.00
10883;DHT22;5494;51.796;10.952;2024-01-30T05:03:43;7.50;1.00
10883;DHT22;5494;51.796;10.952;2024-01-30T05:06:12;7.40;1.00
10883;DHT22;5494;51.796;10.952;2024-01-30T05:08:40;7.40;1.00
10883;DHT22;5494;51.796;10.952;2024-01-30T05:11:08;7.40;1.00
10883;DHT22;5494;51.796;10.952;2024-01-30T05:13:37;7.40;1.00
10883;DHT22;5494;51.796;10.952;2024-01-30T05:16:07;7.40;1.00
10883;DHT22;5494;51.796;10.952;2024-01-30T05:18:35;7.40;1.00
10883;DHT22;5494;51.796;10.952;2024-01-30T05:21:03;7.50;1.00
10883;DHT22;5494;51.796;10.952;2024-01-30T05:23:32;7.60;1.00
10883;DHT22;5494;51.796;10.952;2024-01-30T05:25:59;7.60;1.00
10883;DHT22;5494;51.796;10.952;2024-01-30T05:28:29;7.50;1.00
10883;DHT22;5494;51.796;10.952;2024-01-30T05:30:57;7.60;1.00
10883;DHT22;5494;51.796;10.952;2024-01-30T05:33:26;7.70;1.00
10883;DHT22;5494;51.796;10.952;2024-01-30T05:35:54;7.60;1.00
10883;DHT22;5494;51.796;10.952;2024-01-30T05:38:22;7.50;1.00
10883;DHT22;5494;51.796;10.952;2024-01-30T05:40:50;7.50;1.00
10883;DHT22;5494;51.796;10.952;2024-01-30T05:43:18;7.50;1.00
10883;DHT22;5494;51.796;10.952;2024-01-30T05:45:46;7.50;1.00
10883;DHT22;5494;51.796;10.952;2024-01-30T05:48:14;7.50;1.00
10883;DHT22;5494;51.796;10.952;2024-01-30T05:50:44;7.50;1.00
10883;DHT22;5494;51.796;10.952;2024-01-30T05:53:12;7.60;1.00
10883;DHT22;5494;51.796;10.952;2024-01-30T05:55:40;6.30;1.00
10883;DHT22;5494;51.796;10.952;2024-01-30T05:58:08;8.20;1.00
10883;DHT22;5494;51.796;10.952;2024-01-30T06:00:36;7.70;1.00
10883;DHT22;5494;51.796;10.952;2024-01-30T06:03:04;7.80;1.00
10883;DHT22;5494;51.796;10.952;2024-01-30T06:05:33;7.80;1.00
10883;DHT22;5494;51.796;10.952;2024-01-30T06:08:03;7.80;1.00
10883;DHT22;5494;51.796;10.952;2024-01-30T06:10:32;7.80;1.00
10883;DHT22;5494;51.796;10.952;2024-01-30T06:13:00;7.80;1.00
10883;DHT22;5494;51.796;10.952;2024-01-30T06:15:28;7.90;1.00
10883;DHT22;5494;51.796;10.952;2024-01-30T06:17:57;7.90;1.00
10883;DHT22;5494;51.796;10.952;2024-01-30T06:20:25;7.80;1.00
10883;DHT22;5494;51.796;10.952;2024-01-30T06:22:53;7.80;1.00
10883;DHT22;5494;51.796;10.952;2024-01-30T06:25:22;7.80;1.00
10883;DHT22;5494;51.796;10.952;2024-01-30T06:27:50;7.70;1.00
10883;DHT22;5494;51.796;10.952;2024-01-30T06:30:18;7.70;1.00
10883;DHT22;5494;51.796;10.952;2024-01-30T06:32:46;7.70;1.00
10883;DHT22;5494;51.796;10.952;2024-01-30T06:35:14;7.70;1.00
10883;DHT22;5494;51.796;10.952;2024-01-30T06:37:44;7.70;1.00
10883;DHT22;5494;51.796;10.952;2024-01-30T06:40:15;7.70;1.00
10883;DHT22;5494;51.796;10.952;2024-01-30T06:42:45;7.70;1.00
10883;DHT22;5494;51.796;10.952;2024-01-30T06:45:13;7.60;1.00
10883;DHT22;5494;51.796;10.952;2024-01-30T06:47:42;7.60;1.00
10883;DHT22;5494;51.796;10.952;2024-01-30T06:50:10;7.60;1.00
10883;DHT22;5494;51.796;10.952;2024-01-30T06:52:38;7.60;1.00
10883;DHT22;5494;51.796;10.952;2024-01-30T06:55:07;7.60;1.00
10883;DHT22;5494;51.796;10.952;2024-01-30T06:57:35;7.60;1.00
10883;DHT22;5494;51.796;10.952;2024-01-30T07:00:06;7.60;1.00
10883;DHT22;5494;51.796;10.952;2024-01-30T07:02:35;7.60;1.00
10883;DHT22;5494;51.796;10.952;2024-01-30T07:05:03;7.70;1.00
10883;DHT22;5494;51.796;10.952;2024-01-30T07:07:31;7.70;1.00
10883;DHT22;5494;51.796;10.952;2024-01-30T07:10:00;7.70;1.00
10883;DHT22;5494;51.796;10.952;2024-01-30T07:12:28;7.70;1.00
10883;DHT22;5494;51.796;10.952;2024-01-30T07:14:58;7.70;99.90
10883;DHT22;5494;51.796;10.952;2024-01-30T07:17:27;7.70;99.90
10883;DHT22;5494;51.796;10.952;2024-01-30T07:19:55;7.90;99.90
10883;DHT22;5494;51.796;10.952;2024-01-30T07:22:24;7.80;99.90
10883;DHT22;5494;51.796;10.952;2024-01-30T07:24:52;7.80;99.90
10883;DHT22;5494;51.796;10.952;2024-01-30T07:27:20;7.80;99.90
10883;DHT22;5494;51.796;10.952;2024-01-30T07:29:49;7.90;99.90
10883;DHT22;5494;51.796;10.952;2024-01-30T07:32:16;7.80;99.90
10883;DHT22;5494;51.796;10.952;2024-01-30T07:34:46;7.90;99.90
10883;DHT22;5494;51.796;10.952;2024-01-30T07:37:32;8.00;99.90
10883;DHT22;5494;51.796;10.952;2024-01-30T07:40:01;8.10;99.90
10883;DHT22;5494;51.796;10.952;2024-01-30T07:42:30;8.10;99.90
10883;DHT22;5494;51.796;10.952;2024-01-30T07:44:59;8.20;99.90
10883;DHT22;5494;51.796;10.952;2024-01-30T07:47:28;8.30;59.90
10883;DHT22;5494;51.796;10.952;2024-01-30T07:49:57;8.40;1.00
10883;DHT22;5494;51.796;10.952;2024-01-30T07:52:25;8.50;1.00
10883;DHT22;5494;51.796;10.952;2024-01-30T07:54:53;8.60;1.00
10883;DHT22;5494;51.796;10.952;2024-01-30T07:57:22;8.60;99.90
10883;DHT22;5494;51.796;10.952;2024-01-30T07:59:50;8.80;1.00
10883;DHT22;5494;51.796;10.952;2024-01-30T08:02:17;8.80;1.00
10883;DHT22;5494;51.796;10.952;2024-01-30T08:04:45;8.90;1.00
10883;DHT22;5494;51.796;10.952;2024-01-30T08:07:17;9.00;99.90
10883;DHT22;5494;51.796;10.952;2024-01-30T08:09:45;9.20;1.00
10883;DHT22;5494;51.796;10.952;2024-01-30T08:12:13;9.30;1.00
10883;DHT22;5494;51.796;10.952;2024-01-30T08:14:42;9.40;58.90
10883;DHT22;5494;51.796;10.952;2024-01-30T08:17:10;9.50;1.00
10883;DHT22;5494;51.796;10.952;2024-01-30T08:19:38;9.60;99.90
10883;DHT22;5494;51.796;10.952;2024-01-30T08:22:06;9.80;1.00
10883;DHT22;5494;51.796;10.952;2024-01-30T08:24:35;9.80;1.00
10883;DHT22;5494;51.796;10.952;2024-01-30T08:27:04;9.80;1.00
10883;DHT22;5494;51.796;10.952;2024-01-30T08:29:32;9.80;1.00
10883;DHT22;5494;51.796;10.952;2024-01-30T08:32:00;9.90;1.00
10883;DHT22;5494;51.796;10.952;2024-01-30T08:34:28;9.90;1.00
10883;DHT22;5494;51.796;10.952;2024-01-30T08:36:56;10.00;1.00
10883;DHT22;5494;51.796;10.952;2024-01-30T08:39:24;10.10;1.00
10883;DHT22;5494;51.796;10.952;2024-01-30T08:41:53;10.20;1.00
10883;DHT22;5494;51.796;10.952;2024-01-30T08:44:21;10.30;99.90
10883;DHT22;5494;51.796;10.952;2024-01-30T08:46:49;10.30;1.00
10883;DHT22;5494;51.796;10.952;2024-01-30T08:49:17;10.50;1.00
10883;DHT22;5494;51.796;10.952;2024-01-30T08:51:45;10.60;1.00
10883;DHT22;5494;51.796;10.952;2024-01-30T08:54:14;10.70;1.00
10883;DHT22;5494;51.796;10.952;2024-01-30T08:56:41;11.00;1.00
10883;DHT22;5494;51.796;10.952;2024-01-30T08:59:11;11.20;99.90
10883;DHT22;5494;51.796;10.952;2024-01-30T09:01:39;11.40;1.00
10883;DHT22;5494;51.796;10.952;2024-01-30T09:04:21;11.50;1.00
10883;DHT22;5494;51.796;10.952;2024-01-30T09:06:52;11.70;1.00
10883;DHT22;5494;51.796;10.952;2024-01-30T09:09:20;11.80;1.00
10883;DHT22;5494;51.796;10.952;2024-01-30T09:11:48;11.90;99.90
10883;DHT22;5494;51.796;10.952;2024-01-30T09:14:17;11.80;99.90
10883;DHT22;5494;51.796;10.952;2024-01-30T09:16:46;11.90;99.90
10883;DHT22;5494;51.796;10.952;2024-01-30T09:19:15;12.00;99.90
10883;DHT22;5494;51.796;10.952;2024-01-30T09:21:44;11.90;99.90
10883;DHT22;5494;51.796;10.952;2024-01-30T09:24:12;11.90;99.90
10883;DHT22;5494;51.796;10.952;2024-01-30T09:26:40;11.90;99.90
10883;DHT22;5494;51.796;10.952;2024-01-30T09:29:09;11.80;99.90
10883;DHT22;5494;51.796;10.952;2024-01-30T09:31:38;11.80;99.90
10883;DHT22;5494;51.796;10.952;2024-01-30T09:34:06;11.70;99.90
10883;DHT22;5494;51.796;10.952;2024-01-30T09:36:34;11.70;1.00
10883;DHT22;5494;51.796;10.952;2024-01-30T09:39:02;11.70;99.90
10883;DHT22;5494;51.796;10.952;2024-01-30T09:41:32;11.70;99.90
10883;DHT22;5494;51.796;10.952;2024-01-30T09:44:04;11.80;99.90
10883;DHT22;5494;51.796;10.952;2024-01-30T09:46:38;11.70;1.00
10883;DHT22;5494;51.796;10.952;2024-01-30T09:49:08;11.80;99.90
10883;DHT22;5494;51.796;10.952;2024-01-30T09:51:37;11.80;99.90
10883;DHT22;5494;51.796;10.952;2024-01-30T09:54:08;11.80;99.90
10883;DHT22;5494;51.796;10.952;2024-01-30T09:56:37;11.80;99.90
10883;DHT22;5494;51.796;10.952;2024-01-30T09:59:05;11.80;99.90
10883;DHT22;5494;51.796;10.952;2024-01-30T10:01:34;11.90;99.90
10883;DHT22;5494;51.796;10.952;2024-01-30T10:04:06;11.90;99.90
10883;DHT22;5494;51.796;10.952;2024-01-30T10:06:35;12.00;99.90
10883;DHT22;5494;51.796;10.952;2024-01-30T10:09:03;12.10;99.90
10883;DHT22;5494;51.796;10.952;2024-01-30T10:11:31;12.20;99.90
10883;DHT22;5494;51.796;10.952;2024-01-30T10:14:00;12.20;99.90
10883;DHT22;5494;51.796;10.952;2024-01-30T10:16:28;12.20;99.90
10883;DHT22;5494;51.796;10.952;2024-01-30T10:18:57;12.20;99.90
10883;DHT22;5494;51.796;10.952;2024-01-30T10:21:26;12.20;99.90
10883;DHT22;5494;51.796;10.952;2024-01-30T10:23:54;12.10;99.90
10883;DHT22;5494;51.796;10.952;2024-01-30T10:26:22;12.30;99.90
10883;DHT22;5494;51.796;10.952;2024-01-30T10:28:50;12.20;99.90
10883;DHT22;5494;51.796;10.952;2024-01-30T10:31:18;12.30;99.90
10883;DHT22;5494;51.796;10.952;2024-01-30T10:33:46;12.30;99.90
10883;DHT22;5494;51.796;10.952;2024-01-30T10:36:16;12.30;99.90
10883;DHT22;5494;51.796;10.952;2024-01-30T10:38:50;12.40;99.90
10883;DHT22;5494;51.796;10.952;2024-01-30T10:41:26;12.50;99.90
10883;DHT22;5494;51.796;10.952;2024-01-30T10:44:09;12.40;99.90
10883;DHT22;5494;51.796;10.952;2024-01-30T10:46:39;12.40;99.90
10883;DHT22;5494;51.796;10.952;2024-01-30T10:49:12;12.50;99.90
10883;DHT22;5494;51.796;10.952;2024-01-30T10:51:42;12.50;93.10
10883;DHT22;5494;51.796;10.952;2024-01-30T10:54:12;12.50;49.20
10883;DHT22;5494;51.796;10.952;2024-01-30T10:56:41;12.60;51.20
10883;DHT22;5494;51.796;10.952;2024-01-30T10:59:11;12.60;27.20
10883;DHT22;5494;51.796;10.952;2024-01-30T11:01:40;12.60;40.80
10883;DHT22;5494;51.796;10.952;2024-01-30T11:04:09;12.50;24.90
10883;DHT22;5494;51.796;10.952;2024-01-30T11:06:41;12.50;57.00
10883;DHT22;5494;51.796;10.952;2024-01-30T11:09:12;12.40;89.30
10883;DHT22;5494;51.796;10.952;2024-01-30T11:11:50;12.40;93.90
10883;DHT22;5494;51.796;10.952;2024-01-30T11:14:25;12.30;99.90
10883;DHT22;5494;51.796;10.952;2024-01-30T11:16:56;12.30;99.90
10883;DHT22;5494;51.796;10.952;2024-01-30T11:19:25;12.40;99.90
10883;DHT22;5494;51.796;10.952;2024-01-30T11:21:54;12.30;99.90
10883;DHT22;5494;51.796;10.952;2024-01-30T11:24:25;12.30;99.90
10883;DHT22;5494;51.796;10.952;2024-01-30T11:26:56;12.30;99.90
10883;DHT22;5494;51.796;10.952;2024-01-30T11:29:25;12.30;99.90
10883;DHT22;5494;51.796;10.952;2024-01-30T11:31:53;12.40;99.90
10883;DHT22;5494;51.796;10.952;2024-01-30T11:34:22;12.40;99.90
10883;DHT22;5494;51.796;10.952;2024-01-30T11:36:52;12.40;99.90
10883;DHT22;5494;51.796;10.952;2024-01-30T11:39:27;12.40;99.90
10883;DHT22;5494;51.796;10.952;2024-01-30T11:41:57;12.40;99.90
10883;DHT22;5494;51.796;10.952;2024-01-30T11:44:26;12.40;99.90
10883;DHT22;5494;51.796;10.952;2024-01-30T11:46:54;12.30;99.90
10883;DHT22;5494;51.796;10.952;2024-01-30T11:49:23;12.30;99.90
10883;DHT22;5494;51.796;10.952;2024-01-30T11:51:52;12.30;99.90
10883;DHT22;5494;51.796;10.952;2024-01-30T11:54:20;12.30;99.90
10883;DHT22;5494;51.796;10.952;2024-01-30T11:56:50;12.30;99.90
10883;DHT22;5494;51.796;10.952;2024-01-30T11:59:18;12.30;99.90
10883;DHT22;5494;51.796;10.952;2024-01-30T12:01:46;12.30;99.90
10883;DHT22;5494;51.796;10.952;2024-01-30T12:04:15;12.30;99.90
10883;DHT22;5494;51.796;10.952;2024-01-30T12:06:43;12.30;99.90
10883;DHT22;5494;51.796;10.952;2024-01-30T12:09:11;12.40;99.90
10883;DHT22;5494;51.796;10.952;2024-01-30T12:11:43;12.30;99.90
10883;DHT22;5494;51.796;10.952;2024-01-30T12:14:14;12.30;99.90
10883;DHT22;5494;51.796;10.952;2024-01-30T12:16:42;12.30;99.90
10883;DHT22;5494;51.796;10.952;2024-01-30T12:19:10;12.30;99.90
10883;DHT22;5494;51.796;10.952;2024-01-30T12:21:39;12.30;99.90
10883;DHT22;5494;51.796;10.952;2024-01-30T12:24:07;12.30;99.90
10883;DHT22;5494;51.796;10.952;2024-01-30T12:26:35;12.30;99.90
10883;DHT22;5494;51.796;10.952;2024-01-30T12:29:04;12.30;99.90
10883;DHT22;5494;51.796;10.952;2024-01-30T12:31:33;12.40;99.90
10883;DHT22;5494;51.796;10.952;2024-01-30T12:34:01;12.30;99.90
10883;DHT22;5494;51.796;10.952;2024-01-30T12:36:30;12.40;99.90
10883;DHT22;5494;51.796;10.952;2024-01-30T12:38:58;12.40;99.90
10883;DHT22;5494;51.796;10.952;2024-01-30T12:41:26;12.40;99.90
10883;DHT22;5494;51.796;10.952;2024-01-30T12:43:57;12.40;99.90
10883;DHT22;5494;51.796;10.952;2024-01-30T12:46:28;12.40;99.90
10883;DHT22;5494;51.796;10.952;2024-01-30T12:48:57;12.50;99.90
10883;DHT22;5494;51.796;10.952;2024-01-30T12:51:26;12.50;99.90
10883;DHT22;5494;51.796;10.952;2024-01-30T12:53:54;12.50;99.90
10883;DHT22;5494;51.796;10.952;2024-01-30T12:56:22;12.40;99.90
10883;DHT22;5494;51.796;10.952;2024-01-30T12:58:50;12.30;1.00
10883;DHT22;5494;51.796;10.952;2024-01-30T13:01:21;12.30;1.00
10883;DHT22;5494;51.796;10.952;2024-01-30T13:03:49;12.20;1.00
10883;DHT22;5494;51.796;10.952;2024-01-30T13:06:19;12.20;1.00
10883;DHT22;5494;51.796;10.952;2024-01-30T13:08:47;12.20;1.00
10883;DHT22;5494;51.796;10.952;2024-01-30T13:11:15;12.20;1.00
10883;DHT22;5494;51.796;10.952;2024-01-30T13:13:47;12.10;1.00
10883;DHT22;5494;51.796;10.952;2024-01-30T13:16:15;12.10;1.00
10883;DHT22;5494;51.796;10.952;2024-01-30T13:18:43;12.10;1.00
10883;DHT22;5494;51.796;10.952;2024-01-30T13:21:12;12.10;1.00
10883;DHT22;5494;51.796;10.952;2024-01-30T13:23:41;12.00;1.00
10883;DHT22;5494;51.796;10.952;2024-01-30T13:26:09;11.90;1.00
10883;DHT22;5494;51.796;10.952;2024-01-30T13:28:37;11.90;1.00
10883;DHT22;5494;51.796;10.952;2024-01-30T13:31:05;11.90;1.00
10883;DHT22;5494;51.796;10.952;2024-01-30T13:33:34;11.90;1.00
10883;DHT22;5494;51.796;10.952;2024-01-30T13:36:01;11.90;1.00
10883;DHT22;5494;51.796;10.952;2024-01-30T13:38:29;11.90;1.00
10883;DHT22;5494;51.796;10.952;2024-01-30T13:40:58;11.90;1.00
10883;DHT22;5494;51.796;10.952;2024-01-30T13:43:27;11.90;1.00
10883;DHT22;5494;51.796;10.952;2024-01-30T13:45:55;11.90;1.00
10883;DHT22;5494;51.796;10.952;2024-01-30T13:48:23;11.90;1.00
10883;DHT22;5494;51.796;10.952;2024-01-30T13:50:51;11.80;1.00
10883;DHT22;5494;51.796;10.952;2024-01-30T13:53:20;11.80;1.00
10883;DHT22;5494;51.796;10.952;2024-01-30T13:55:48;11.80;1.00
10883;DHT22;5494;51.796;10.952;2024-01-30T13:58:18;11.80;1.00
10883;DHT22;5494;51.796;10.952;2024-01-30T14:00:46;11.70;1.00
10883;DHT22;5494;51.796;10.952;2024-01-30T14:03:14;11.70;1.00
10883;DHT22;5494;51.796;10.952;2024-01-30T14:05:42;11.70;5.70
10883;DHT22;5494;51.796;10.952;2024-01-30T14:08:11;11.70;3.10
10883;DHT22;5494;51.796;10.952;2024-01-30T14:10:39;11.70;80.10
10883;DHT22;5494;51.796;10.952;2024-01-30T14:13:07;11.70;88.30
10883;DHT22;5494;51.796;10.952;2024-01-30T14:15:36;11.70;99.90
10883;DHT22;5494;51.796;10.952;2024-01-30T14:18:05;11.60;99.90
10883;DHT22;5494;51.796;10.952;2024-01-30T14:20:35;11.60;99.90
10883;DHT22;5494;51.796;10.952;2024-01-30T14:23:03;11.60;99.90
10883;DHT22;5494;51.796;10.952;2024-01-30T14:25:31;11.60;99.90
10883;DHT22;5494;51.796;10.952;2024-01-30T14:27:59;11.60;99.90
10883;DHT22;5494;51.796;10.952;2024-01-30T14:30:29;11.50;99.90
10883;DHT22;5494;51.796;10.952;2024-01-30T14:32:59;11.50;99.90
10883;DHT22;5494;51.796;10.952;2024-01-30T14:35:27;11.40;99.90
10883;DHT22;5494;51.796;10.952;2024-01-30T14:37:55;11.40;99.90
10883;DHT22;5494;51.796;10.952;2024-01-30T14:40:23;11.40;99.90
10883;DHT22;5494;51.796;10.952;2024-01-30T14:42:52;11.40;99.90
10883;DHT22;5494;51.796;10.952;2024-01-30T14:45:21;11.40;99.90
10883;DHT22;5494;51.796;10.952;2024-01-30T14:47:49;11.40;99.90
10883;DHT22;5494;51.796;10.952;2024-01-30T14:50:20;11.50;99.90
10883;DHT22;5494;51.796;10.952;2024-01-30T14:52:49;11.60;99.90
10883;DHT22;5494;51.796;10.952;2024-01-30T14:55:17;11.50;99.90
10883;DHT22;5494;51.796;10.952;2024-01-30T14:57:45;11.50;1.00
10883;DHT22;5494;51.796;10.952;2024-01-30T15:00:15;11.50;99.90
10883;DHT22;5494;51.796;10.952;2024-01-30T15:02:44;11.60;99.90
10883;DHT22;5494;51.796;10.952;2024-01-30T15:05:13;11.60;99.90
10883;DHT22;5494;51.796;10.952;2024-01-30T15:07:43;11.50;99.90
10883;DHT22;5494;51.796;10.952;2024-01-30T15:10:12;11.40;1.00
10883;DHT22;5494;51.796;10.952;2024-01-30T15:12:40;11.40;1.00
10883;DHT22;5494;51.796;10.952;2024-01-30T15:15:08;11.40;1.00
10883;DHT22;5494;51.796;10.952;2024-01-30T15:17:38;11.40;1.00
10883;DHT22;5494;51.796;10.952;2024-01-30T15:20:07;11.30;1.00
10883;DHT22;5494;51.796;10.952;2024-01-30T15:22:36;11.30;1.00
10883;DHT22;5494;51.796;10.952;2024-01-30T15:25:08;11.30;1.00
10883;DHT22;5494;51.796;10.952;2024-01-30T15:27:37;11.20;1.00
10883;DHT22;5494;51.796;10.952;2024-01-30T15:30:06;11.20;1.00
10883;DHT22;5494;51.796;10.952;2024-01-30T15:32:34;11.20;1.00
10883;DHT22;5494;51.796;10.952;2024-01-30T15:35:03;11.20;1.00
10883;DHT22;5494;51.796;10.952;2024-01-30T15:37:32;11.20;1.00
10883;DHT22;5494;51.796;10.952;2024-01-30T15:40:01;9.70;56.80
10883;DHT22;5494;51.796;10.952;2024-01-30T15:42:34;11.00;14.90
10883;DHT22;5494;51.796;10.952;2024-01-30T15:45:03;10.90;99.90
10883;DHT22;5494;51.796;10.952;2024-01-30T15:47:32;10.90;99.90
10883;DHT22;5494;51.796;10.952;2024-01-30T15:50:00;10.80;1.00
10883;DHT22;5494;51.796;10.952;2024-01-30T15:52:28;10.80;1.00
10883;DHT22;5494;51.796;10.952;2024-01-30T15:54:56;10.70;1.00
10883;DHT22;5494;51.796;10.952;2024-01-30T15:57:25;10.80;1.00